createdAt,value
2022-08-03T00:00:59.399Z,61.94
2022-08-03T00:01:59.390Z,61.64
2022-08-03T00:02:59.449Z,61.24
2022-08-03T00:03:59.365Z,61.54
2022-08-03T00:04:59.354Z,60.97
2022-08-03T00:06:02.656Z,60.36
2022-08-03T00:06:59.330Z,61.44
2022-08-03T00:07:59.322Z,60.47
2022-08-03T00:08:59.308Z,60.47
2022-08-03T00:09:59.299Z,60.27
2022-08-03T00:10:59.286Z,61.17
2022-08-03T00:11:59.276Z,60.57
2022-08-03T00:12:59.269Z,60.97
2022-08-03T00:13:59.256Z,60.16
2022-08-03T00:14:59.241Z,59.86
2022-08-03T00:15:59.232Z,59.77
2022-08-03T00:16:59.223Z,59.86
2022-08-03T00:17:59.208Z,59.19
2022-08-03T00:19:00.848Z,58.59
2022-08-03T00:19:59.190Z,58.59
2022-08-03T00:20:59.179Z,58.18
2022-08-03T00:21:59.163Z,58.49
2022-08-03T00:22:59.155Z,58.39
2022-08-03T00:23:59.143Z,58.09
2022-08-03T00:24:59.143Z,57.18
2022-08-03T00:25:59.131Z,57.08
2022-08-03T00:26:59.142Z,57.18
2022-08-03T00:27:59.133Z,57.48
2022-08-03T00:28:59.133Z,56.08
2022-08-03T00:30:00.177Z,55.60
2022-08-03T00:30:59.080Z,55.51
2022-08-03T00:32:00.081Z,54.38
2022-08-03T00:32:59.043Z,54.77
2022-08-03T00:34:03.301Z,55.51
2022-08-03T00:34:59.247Z,54.80
2022-08-03T00:35:59.009Z,53.30
2022-08-03T00:36:59.000Z,53.59
2022-08-03T00:37:58.987Z,53.70
2022-08-03T00:38:58.976Z,53.80
2022-08-03T00:39:59.959Z,53.80
2022-08-03T00:40:58.955Z,54.10
2022-08-03T00:41:58.960Z,54.20
2022-08-03T00:42:58.948Z,54.00
2022-08-03T00:43:58.920Z,54.50
2022-08-03T00:44:58.914Z,54.40
2022-08-03T00:45:58.907Z,54.50
2022-08-03T00:46:58.888Z,55.51
2022-08-03T00:47:58.885Z,54.83
2022-08-03T00:48:58.923Z,53.32
2022-08-03T00:49:58.857Z,53.62
2022-08-03T00:50:58.856Z,53.42
2022-08-03T00:51:58.833Z,53.92
2022-08-03T00:52:58.825Z,54.33
2022-08-03T00:53:58.824Z,53.22
2022-08-03T00:54:58.802Z,52.74
2022-08-03T00:55:58.791Z,51.94
2022-08-03T00:56:59.833Z,51.84
2022-08-03T00:57:58.769Z,52.64
2022-08-03T00:58:58.771Z,51.44
2022-08-03T00:59:58.751Z,51.14
2022-08-03T01:00:58.746Z,50.43
2022-08-03T01:01:58.727Z,52.55
2022-08-03T01:02:58.714Z,51.34
2022-08-03T01:03:58.697Z,50.93
2022-08-03T01:04:58.691Z,50.63
2022-08-03T01:05:58.678Z,51.14
2022-08-03T01:06:58.669Z,50.93
2022-08-03T01:07:58.656Z,51.44
2022-08-03T01:08:58.644Z,50.23
2022-08-03T01:09:58.633Z,50.03
2022-08-03T01:10:58.623Z,49.93
2022-08-03T01:12:01.114Z,49.85
2022-08-03T01:12:58.600Z,50.03
2022-08-03T01:14:01.433Z,51.14
2022-08-03T01:14:58.583Z,50.35
2022-08-03T01:15:58.567Z,50.23
2022-08-03T01:16:58.557Z,50.05
2022-08-03T01:17:58.544Z,49.85
2022-08-03T01:18:58.536Z,49.55
2022-08-03T01:19:58.521Z,48.65
2022-08-03T01:20:58.513Z,50.46
2022-08-03T01:21:58.518Z,48.14
2022-08-03T01:22:58.491Z,50.05
2022-08-03T01:23:58.484Z,48.25
2022-08-03T01:24:58.472Z,47.24
2022-08-03T01:25:58.487Z,48.27
2022-08-03T01:26:58.449Z,46.86
2022-08-03T01:27:58.435Z,47.36
2022-08-03T01:28:58.427Z,47.06
2022-08-03T01:29:58.412Z,45.95
2022-08-03T01:30:58.402Z,45.75
2022-08-03T01:32:52.526Z,45.65
2022-08-03T01:33:02.734Z,44.65
2022-08-03T01:33:58.367Z,45.45
2022-08-03T01:34:58.359Z,44.45
2022-08-03T01:35:58.348Z,44.24
2022-08-03T01:36:58.336Z,45.95
2022-08-03T01:37:58.323Z,44.75
2022-08-03T01:38:58.314Z,45.75
2022-08-03T01:39:58.302Z,46.06
2022-08-03T01:40:58.292Z,45.55
2022-08-03T01:41:58.278Z,44.75
2022-08-03T01:42:58.271Z,44.65
2022-08-03T01:44:28.359Z,44.45
2022-08-03T01:44:58.248Z,44.37
2022-08-03T01:45:58.236Z,45.95
2022-08-03T01:46:58.224Z,46.38
2022-08-03T01:47:58.215Z,45.57
2022-08-03T01:48:58.292Z,44.37
2022-08-03T01:49:58.195Z,43.87
2022-08-03T01:50:58.205Z,45.27
2022-08-03T01:52:04.473Z,43.38
2022-08-03T01:52:59.194Z,44.57
2022-08-03T01:53:58.148Z,44.37
2022-08-03T01:54:58.136Z,44.17
2022-08-03T01:55:58.122Z,44.79
2022-08-03T01:56:58.115Z,44.79
2022-08-03T01:58:05.721Z,44.79
2022-08-03T01:58:58.091Z,45.09
2022-08-03T01:59:58.079Z,44.19
2022-08-03T02:00:58.155Z,45.37
2022-08-03T02:02:15.624Z,45.37
2022-08-03T02:02:58.042Z,46.20
2022-08-03T02:04:00.605Z,45.09
2022-08-03T02:04:58.023Z,45.29
2022-08-03T02:06:58.956Z,45.70
2022-08-03T02:07:02.231Z,43.38
2022-08-03T02:07:57.985Z,43.06
2022-08-03T02:08:57.974Z,45.19
2022-08-03T02:09:57.961Z,43.99
2022-08-03T02:10:57.951Z,44.29
2022-08-03T02:11:57.938Z,43.99
2022-08-03T02:12:57.928Z,42.27
2022-08-03T02:13:57.916Z,41.97
2022-08-03T02:14:57.905Z,42.98
2022-08-03T02:15:57.892Z,45.19
2022-08-03T02:16:57.882Z,45.42
2022-08-03T02:17:57.867Z,43.10
2022-08-03T02:18:57.857Z,43.20
2022-08-03T02:19:57.845Z,43.28
2022-08-03T02:20:57.833Z,43.79
2022-08-03T02:22:01.052Z,44.51
2022-08-03T02:22:57.810Z,44.89
2022-08-03T02:23:57.799Z,44.49
2022-08-03T02:24:57.786Z,45.21
2022-08-03T02:25:57.773Z,44.59
2022-08-03T02:26:57.763Z,44.51
2022-08-03T02:27:57.748Z,44.11
2022-08-03T02:28:57.743Z,45.42
2022-08-03T02:29:57.726Z,44.31
2022-08-03T02:30:57.718Z,43.93
2022-08-03T02:31:57.703Z,44.51
2022-08-03T02:32:57.694Z,44.33
2022-08-03T02:33:57.681Z,42.30
2022-08-03T02:34:57.672Z,42.52
2022-08-03T02:35:57.660Z,42.10
2022-08-03T02:36:57.655Z,43.82
2022-08-03T02:37:57.636Z,40.99
2022-08-03T02:38:57.625Z,41.59
2022-08-03T02:39:57.619Z,42.21
2022-08-03T02:40:57.606Z,41.51
2022-08-03T02:41:57.588Z,41.41
2022-08-03T02:42:57.581Z,40.89
2022-08-03T02:44:06.886Z,42.21
2022-08-03T02:44:58.582Z,40.00
2022-08-03T02:45:57.544Z,40.00
2022-08-03T02:46:57.540Z,39.70
2022-08-03T02:47:57.520Z,38.99
2022-08-03T02:48:57.566Z,39.90
2022-08-03T02:49:57.536Z,38.48
2022-08-03T02:50:57.493Z,39.29
2022-08-03T02:51:57.481Z,41.22
2022-08-03T02:52:57.468Z,39.81
2022-08-03T02:53:57.453Z,38.89
2022-08-03T02:54:57.444Z,43.34
2022-08-03T02:55:57.430Z,40.22
2022-08-03T02:56:57.423Z,39.92
2022-08-03T02:57:57.414Z,39.41
2022-08-03T02:58:57.399Z,40.52
2022-08-03T02:59:57.389Z,40.62
2022-08-03T03:00:57.467Z,42.03
2022-08-03T03:01:57.367Z,40.12
2022-08-03T03:02:57.358Z,42.64
2022-08-03T03:03:57.343Z,42.94
2022-08-03T03:05:52.409Z,39.83
2022-08-03T03:05:57.705Z,37.71
2022-08-03T03:06:57.314Z,37.82
2022-08-03T03:07:57.301Z,37.82
2022-08-03T03:08:59.775Z,37.71
2022-08-03T03:09:57.281Z,36.69
2022-08-03T03:10:57.271Z,39.21
2022-08-03T03:11:57.259Z,37.92
2022-08-03T03:12:57.252Z,37.80
2022-08-03T03:13:57.237Z,38.62
2022-08-03T03:14:57.227Z,37.90
2022-08-03T03:15:57.216Z,38.42
2022-08-03T03:16:57.680Z,40.54
2022-08-03T03:17:57.196Z,38.12
2022-08-03T03:18:57.185Z,38.82
2022-08-03T03:19:57.174Z,38.32
2022-08-03T03:20:57.168Z,36.71
2022-08-03T03:21:57.158Z,37.01
2022-08-03T03:22:57.144Z,35.80
2022-08-03T03:23:57.130Z,36.81
2022-08-03T03:24:57.121Z,37.11
2022-08-03T03:25:57.109Z,37.92
2022-08-03T03:26:57.100Z,37.31
2022-08-03T03:27:57.089Z,38.52
2022-08-03T03:28:57.078Z,35.60
2022-08-03T03:29:57.073Z,35.80
2022-08-03T03:30:57.058Z,36.20
2022-08-03T03:31:57.044Z,36.30
2022-08-03T03:32:57.035Z,36.91
2022-08-03T03:33:57.095Z,40.54
2022-08-03T03:34:57.016Z,39.35
2022-08-03T03:35:57.003Z,37.43
2022-08-03T03:36:56.994Z,36.62
2022-08-03T03:37:56.993Z,35.82
2022-08-03T03:38:56.969Z,36.93
2022-08-03T03:39:56.956Z,36.22
2022-08-03T03:40:56.948Z,34.70
2022-08-03T03:41:56.935Z,37.23
2022-08-03T03:42:56.928Z,36.82
2022-08-03T03:43:56.914Z,37.02
2022-08-03T03:44:56.903Z,36.52
2022-08-03T03:45:56.891Z,37.33
2022-08-03T03:46:56.882Z,35.52
2022-08-03T03:47:56.868Z,34.81
2022-08-03T03:48:56.898Z,34.61
2022-08-03T03:49:56.847Z,35.41
2022-08-03T03:50:56.838Z,37.13
2022-08-03T03:51:56.823Z,36.94
2022-08-03T03:52:56.816Z,34.42
2022-08-03T03:53:56.803Z,34.30
2022-08-03T03:55:00.778Z,34.81
2022-08-03T03:56:01.926Z,35.52
2022-08-03T03:56:57.796Z,35.52
2022-08-03T03:57:56.759Z,36.22
2022-08-03T03:58:56.750Z,36.62
2022-08-03T03:59:56.753Z,37.23
2022-08-03T04:00:56.876Z,37.84
2022-08-03T04:01:58.942Z,35.11
2022-08-03T04:02:56.705Z,35.72
2022-08-03T04:03:56.690Z,35.31
2022-08-03T04:04:56.678Z,36.32
2022-08-03T04:05:56.670Z,34.61
2022-08-03T04:06:56.658Z,34.41
2022-08-03T04:07:56.644Z,35.92
2022-08-03T04:08:56.635Z,34.91
2022-08-03T04:09:56.622Z,35.01
2022-08-03T04:10:56.613Z,35.31
2022-08-03T04:11:56.599Z,35.72
2022-08-03T04:12:56.590Z,34.61
2022-08-03T04:13:56.584Z,34.20
2022-08-03T04:14:56.570Z,34.70
2022-08-03T04:15:56.555Z,35.11
2022-08-03T04:16:56.544Z,35.01
2022-08-03T04:17:56.533Z,35.01
2022-08-03T04:18:56.522Z,35.72
2022-08-03T04:19:56.510Z,35.52
2022-08-03T04:20:56.502Z,36.72
2022-08-03T04:21:57.077Z,36.02
2022-08-03T04:22:56.482Z,37.73
2022-08-03T04:23:56.467Z,37.13
2022-08-03T04:24:56.472Z,35.01
2022-08-03T04:25:56.448Z,36.32
2022-08-03T04:26:56.437Z,36.52
2022-08-03T04:28:29.987Z,35.31
2022-08-03T04:28:56.417Z,35.92
2022-08-03T04:29:56.403Z,36.22
2022-08-03T04:30:56.396Z,37.92
2022-08-03T04:31:56.383Z,36.51
2022-08-03T04:32:56.376Z,36.30
2022-08-03T04:33:56.363Z,37.71
2022-08-03T04:34:56.353Z,36.91
2022-08-03T04:36:02.865Z,37.31
2022-08-03T04:36:56.331Z,36.61
2022-08-03T04:37:56.320Z,36.91
2022-08-03T04:38:56.308Z,36.20
2022-08-03T04:39:57.598Z,37.62
2022-08-03T04:40:56.291Z,36.51
2022-08-03T04:42:24.076Z,36.81
2022-08-03T04:42:57.297Z,39.33
2022-08-03T04:43:56.257Z,38.42
2022-08-03T04:45:00.791Z,37.90
2022-08-03T04:45:56.238Z,39.39
2022-08-03T04:46:56.227Z,41.49
2022-08-03T04:47:56.238Z,43.10
2022-08-03T04:48:56.262Z,44.41
2022-08-03T04:49:56.191Z,45.32
2022-08-03T04:50:56.177Z,45.82
2022-08-03T04:51:56.168Z,45.62
2022-08-03T04:52:56.159Z,47.13
2022-08-03T04:53:56.156Z,47.74
2022-08-03T04:54:56.131Z,46.91
2022-08-03T04:55:56.123Z,47.51
2022-08-03T04:56:56.111Z,47.31
2022-08-03T04:57:56.098Z,48.01
2022-08-03T04:58:56.087Z,50.00
2022-08-03T05:00:02.262Z,50.00
2022-08-03T05:00:56.066Z,50.18
2022-08-03T05:01:56.118Z,52.06
2022-08-03T05:02:56.042Z,54.25
2022-08-03T05:03:56.031Z,57.24
2022-08-03T05:04:56.020Z,62.13
2022-08-03T05:06:00.644Z,63.43
2022-08-03T05:06:56.013Z,65.21
2022-08-03T05:07:55.988Z,67.18
2022-08-03T05:08:55.974Z,67.85
2022-08-03T05:09:57.709Z,70.06
2022-08-03T05:10:59.124Z,72.33
2022-08-03T05:11:55.944Z,72.13
2022-08-03T05:12:55.930Z,73.63
2022-08-03T05:13:55.929Z,74.20
2022-08-03T05:14:55.912Z,75.50
2022-08-03T05:15:55.911Z,75.40
2022-08-03T05:16:55.888Z,75.40
2022-08-03T05:17:55.879Z,75.40
2022-08-03T05:18:55.867Z,75.56
2022-08-03T05:19:55.889Z,75.26
2022-08-03T05:20:55.843Z,75.33
2022-08-03T05:21:55.833Z,77.83
2022-08-03T05:22:55.825Z,78.09
2022-08-03T05:23:55.841Z,78.16
2022-08-03T05:24:56.081Z,79.96
2022-08-03T05:25:55.792Z,80.51
2022-08-03T05:26:55.781Z,80.62
2022-08-03T05:27:55.770Z,82.37
2022-08-03T05:28:55.756Z,82.77
2022-08-03T05:29:55.751Z,83.37
2022-08-03T05:30:55.735Z,82.87
2022-08-03T05:31:55.752Z,85.37
2022-08-03T05:32:55.749Z,85.87
2022-08-03T05:33:55.719Z,86.36
2022-08-03T05:34:55.706Z,86.13
2022-08-03T05:36:03.558Z,84.13
2022-08-03T05:36:55.665Z,85.42
2022-08-03T05:37:55.659Z,83.63
2022-08-03T05:38:58.523Z,84.99
2022-08-03T05:39:56.661Z,86.68
2022-08-03T05:40:57.371Z,86.79
2022-08-03T05:41:56.638Z,87.08
2022-08-03T05:42:55.602Z,85.33
2022-08-03T05:43:55.596Z,86.27
2022-08-03T05:44:55.578Z,86.27
2022-08-03T05:46:01.505Z,85.57
2022-08-03T05:46:55.555Z,84.97
2022-08-03T05:47:55.557Z,86.52
2022-08-03T05:48:55.594Z,86.98
2022-08-03T05:49:55.527Z,87.68
2022-08-03T05:50:55.518Z,87.88
2022-08-03T05:52:00.261Z,88.28
2022-08-03T05:52:55.492Z,88.04
2022-08-03T05:53:55.491Z,89.49
2022-08-03T05:54:57.601Z,89.54
2022-08-03T05:56:00.610Z,90.05
2022-08-03T05:56:55.476Z,90.50
2022-08-03T05:57:56.828Z,91.20
2022-08-03T05:58:55.427Z,92.45
2022-08-03T05:59:58.700Z,92.25
2022-08-03T06:00:55.415Z,91.95
2022-08-03T06:01:55.426Z,91.41
2022-08-03T06:02:55.392Z,92.10
2022-08-03T06:03:55.377Z,91.41
2022-08-03T06:04:55.376Z,91.61
2022-08-03T06:06:00.261Z,91.71
2022-08-03T06:06:55.343Z,91.81
2022-08-03T06:07:55.339Z,92.65
2022-08-03T06:08:55.319Z,91.00
2022-08-03T06:10:36.897Z,91.04
2022-08-03T06:10:55.300Z,89.45
2022-08-03T06:11:55.289Z,89.89
2022-08-03T06:12:55.274Z,89.19
2022-08-03T06:13:55.265Z,88.54
2022-08-03T06:14:55.260Z,86.84
2022-08-03T06:15:55.260Z,87.44
2022-08-03T06:16:55.353Z,88.54
2022-08-03T06:17:58.728Z,86.84
2022-08-03T06:18:56.490Z,88.04
2022-08-03T06:19:55.238Z,84.95
2022-08-03T06:20:55.227Z,86.84
2022-08-03T06:21:55.183Z,86.34
2022-08-03T06:23:00.413Z,86.84
2022-08-03T06:23:55.752Z,86.94
2022-08-03T06:24:55.147Z,85.94
2022-08-03T06:25:55.134Z,87.20
2022-08-03T06:26:55.120Z,87.10
2022-08-03T06:27:55.112Z,85.30
2022-08-03T06:28:55.435Z,87.90
2022-08-03T06:29:55.091Z,87.50
2022-08-03T06:30:55.078Z,87.80
2022-08-03T06:31:55.068Z,86.70
2022-08-03T06:32:55.055Z,88.20
2022-08-03T06:34:34.447Z,87.60
2022-08-03T06:34:56.061Z,88.10
2022-08-03T06:35:55.026Z,87.65
2022-08-03T06:37:01.277Z,87.05
2022-08-03T06:37:56.029Z,88.25
2022-08-03T06:38:54.994Z,87.55
2022-08-03T06:39:55.006Z,87.05
2022-08-03T06:40:55.003Z,85.86
2022-08-03T06:41:54.994Z,87.12
2022-08-03T06:42:54.946Z,87.77
2022-08-03T06:44:03.466Z,88.46
2022-08-03T06:44:54.936Z,89.22
2022-08-03T06:45:54.919Z,88.76
2022-08-03T06:46:54.904Z,88.07
2022-08-03T06:47:54.897Z,87.37
2022-08-03T06:48:54.927Z,88.53
2022-08-03T06:50:13.011Z,89.02
2022-08-03T06:50:55.899Z,88.68
2022-08-03T06:52:03.661Z,88.48
2022-08-03T06:52:54.841Z,88.48
2022-08-03T06:53:54.829Z,88.58
2022-08-03T06:54:54.815Z,89.58
2022-08-03T06:55:55.381Z,89.23
2022-08-03T06:56:54.794Z,92.22
2022-08-03T06:57:54.785Z,93.67
2022-08-03T06:58:54.773Z,92.59
2022-08-03T07:00:07.971Z,92.94
2022-08-03T07:00:54.779Z,92.94
2022-08-03T07:01:54.809Z,92.90
2022-08-03T07:02:58.085Z,90.62
2022-08-03T07:03:54.758Z,91.11
2022-08-03T07:04:54.707Z,92.70
2022-08-03T07:05:54.700Z,91.07
2022-08-03T07:06:54.684Z,89.74
2022-08-03T07:07:54.675Z,88.01
2022-08-03T07:08:59.238Z,83.23
2022-08-03T07:09:56.768Z,83.82
2022-08-03T07:10:54.642Z,84.22
2022-08-03T07:11:54.632Z,82.99
2022-08-03T07:12:56.413Z,81.41
2022-08-03T07:13:54.614Z,84.03
2022-08-03T07:14:58.200Z,77.03
2022-08-03T07:15:56.436Z,76.14
2022-08-03T07:16:54.578Z,76.29
2022-08-03T07:17:54.569Z,76.59
2022-08-03T07:18:54.557Z,77.87
2022-08-03T07:19:54.548Z,74.02
2022-08-03T07:20:54.534Z,71.52
2022-08-03T07:21:54.527Z,72.47
2022-08-03T07:22:54.513Z,69.81
2022-08-03T07:23:54.511Z,71.23
2022-08-03T07:24:54.528Z,73.93
2022-08-03T07:25:54.511Z,74.32
2022-08-03T07:26:54.481Z,74.62
2022-08-03T07:27:54.463Z,72.02
2022-08-03T07:28:54.451Z,70.54
2022-08-03T07:29:54.441Z,68.93
2022-08-03T07:30:54.436Z,66.53
2022-08-03T07:31:54.421Z,67.87
2022-08-03T07:32:54.409Z,67.74
2022-08-03T07:33:54.419Z,63.81
2022-08-03T07:34:58.436Z,64.46
2022-08-03T07:35:55.494Z,65.81
2022-08-03T07:36:54.366Z,64.01
2022-08-03T07:37:55.160Z,63.45
2022-08-03T07:38:54.345Z,64.23
2022-08-03T07:39:54.339Z,62.85
2022-08-03T07:40:54.325Z,63.57
2022-08-03T07:41:54.314Z,62.72
2022-08-03T07:42:54.314Z,65.28
2022-08-03T07:43:54.295Z,64.86
2022-08-03T07:44:54.283Z,61.68
2022-08-03T07:45:54.281Z,60.17
2022-08-03T07:46:54.283Z,60.83
2022-08-03T07:47:54.555Z,61.03
2022-08-03T07:48:54.322Z,60.47
2022-08-03T07:49:54.254Z,59.75
2022-08-03T07:50:54.224Z,60.34
2022-08-03T07:51:54.211Z,60.21
2022-08-03T07:52:54.202Z,59.89
2022-08-03T07:53:54.294Z,58.19
2022-08-03T07:54:54.181Z,58.19
2022-08-03T07:55:54.176Z,57.73
2022-08-03T07:56:54.161Z,57.76
2022-08-03T07:57:54.156Z,57.39
2022-08-03T07:58:54.141Z,59.16
2022-08-03T08:00:01.399Z,60.11
2022-08-03T08:00:55.203Z,59.65
2022-08-03T08:01:54.113Z,59.97
2022-08-03T08:02:54.101Z,64.26
2022-08-03T08:03:54.097Z,63.21
2022-08-03T08:04:54.083Z,63.90
2022-08-03T08:05:54.073Z,65.18
2022-08-03T08:06:54.070Z,62.99
2022-08-03T08:07:54.058Z,65.58
2022-08-03T08:08:54.046Z,65.48
2022-08-03T08:09:54.052Z,65.25
2022-08-03T08:10:57.756Z,61.65
2022-08-03T08:11:54.025Z,60.99
2022-08-03T08:12:54.003Z,60.99
2022-08-03T08:13:53.996Z,60.76
2022-08-03T08:14:53.983Z,61.22
2022-08-03T08:15:53.976Z,61.58
2022-08-03T08:16:53.964Z,58.81
2022-08-03T08:17:53.956Z,58.02
2022-08-03T08:18:53.950Z,56.92
2022-08-03T08:19:53.933Z,57.90
2022-08-03T08:20:53.923Z,56.88
2022-08-03T08:22:02.299Z,57.70
2022-08-03T08:22:54.956Z,56.52
2022-08-03T08:23:57.063Z,56.62
2022-08-03T08:24:53.890Z,57.48
2022-08-03T08:25:53.872Z,56.40
2022-08-03T08:26:53.859Z,54.50
2022-08-03T08:28:25.302Z,54.41
2022-08-03T08:28:54.872Z,54.60
2022-08-03T08:29:54.637Z,55.12
2022-08-03T08:30:53.820Z,54.83
2022-08-03T08:31:53.833Z,55.51
2022-08-03T08:32:53.853Z,55.02
2022-08-03T08:34:09.233Z,55.68
2022-08-03T08:34:54.810Z,55.39
2022-08-03T08:35:53.813Z,55.29
2022-08-03T08:36:53.786Z,54.97
2022-08-03T08:37:53.773Z,54.85
2022-08-03T08:38:53.773Z,52.00
2022-08-03T08:39:53.736Z,53.50
2022-08-03T08:40:53.725Z,53.59
2022-08-03T08:41:53.709Z,56.73
2022-08-03T08:42:58.886Z,53.92
2022-08-03T08:43:58.169Z,55.78
2022-08-03T08:44:53.677Z,53.59
2022-08-03T08:45:53.667Z,53.28
2022-08-03T08:46:53.657Z,53.18
2022-08-03T08:47:58.135Z,53.06
2022-08-03T08:48:53.784Z,52.73
2022-08-03T08:50:09.324Z,52.03
2022-08-03T08:50:54.643Z,51.03
2022-08-03T08:52:00.763Z,50.32
2022-08-03T08:52:54.624Z,50.81
2022-08-03T08:53:53.589Z,50.15
2022-08-03T08:54:53.578Z,50.76
2022-08-03T08:55:58.438Z,53.10
2022-08-03T08:56:53.588Z,51.25
2022-08-03T08:57:53.589Z,53.91
2022-08-03T08:58:53.558Z,51.20
2022-08-03T08:59:57.279Z,51.90
2022-08-03T09:00:53.601Z,53.30
2022-08-03T09:01:53.508Z,53.72
2022-08-03T09:02:53.500Z,53.99
2022-08-03T09:03:53.495Z,54.68
2022-08-03T09:04:53.476Z,54.41
2022-08-03T09:05:56.116Z,55.19
2022-08-03T09:07:10.821Z,54.60
2022-08-03T09:07:53.445Z,55.58
2022-08-03T09:08:53.437Z,53.13
2022-08-03T09:10:11.310Z,54.90
2022-08-03T09:10:54.796Z,53.13
2022-08-03T09:12:01.183Z,54.28
2022-08-03T09:12:53.395Z,53.80
2022-08-03T09:13:53.385Z,53.86
2022-08-03T09:15:14.657Z,51.98
2022-08-03T09:16:01.105Z,53.03
2022-08-03T09:16:54.386Z,50.46
2022-08-03T09:17:53.359Z,51.54
2022-08-03T09:18:53.399Z,50.27
2022-08-03T09:20:03.688Z,51.46
2022-08-03T09:20:53.362Z,51.51
2022-08-03T09:21:53.319Z,51.68
2022-08-03T09:22:53.299Z,49.53
2022-08-03T09:24:01.932Z,50.42
2022-08-03T09:25:14.717Z,49.46
2022-08-03T09:25:53.269Z,50.22
2022-08-03T09:26:53.885Z,49.12
2022-08-03T09:27:53.502Z,49.98
2022-08-03T09:29:03.854Z,48.78
2022-08-03T09:29:53.227Z,47.56
2022-08-03T09:30:53.221Z,47.83
2022-08-03T09:31:53.210Z,48.00
2022-08-03T09:32:53.200Z,47.44
2022-08-03T09:33:53.189Z,47.44
2022-08-03T09:34:56.544Z,47.25
2022-08-03T09:35:54.449Z,47.15
2022-08-03T09:36:53.162Z,46.08
2022-08-03T09:38:13.596Z,47.75
2022-08-03T09:38:53.142Z,47.05
2022-08-03T09:39:53.135Z,46.86
2022-08-03T09:40:57.459Z,48.39
2022-08-03T09:41:54.152Z,46.59
2022-08-03T09:42:53.197Z,46.01
2022-08-03T09:43:53.130Z,45.01
2022-08-03T09:44:53.112Z,44.68
2022-08-03T09:45:53.076Z,45.48
2022-08-03T09:46:53.065Z,44.97
2022-08-03T09:47:53.055Z,44.27
2022-08-03T09:48:53.119Z,43.88
2022-08-03T09:49:53.034Z,44.97
2022-08-03T09:50:57.120Z,44.19
2022-08-03T09:52:31.335Z,43.90
2022-08-03T09:52:53.099Z,45.23
2022-08-03T09:53:58.832Z,45.54
2022-08-03T09:54:52.992Z,45.94
2022-08-03T09:56:33.926Z,45.23
2022-08-03T09:56:52.976Z,46.64
2022-08-03T09:57:52.963Z,45.09
2022-08-03T09:58:52.958Z,44.33
2022-08-03T10:00:01.869Z,45.01
2022-08-03T10:00:54.234Z,45.01
2022-08-03T10:01:52.928Z,44.45
2022-08-03T10:02:53.165Z,44.48
2022-08-03T10:04:03.857Z,44.49
2022-08-03T10:04:52.931Z,45.06
2022-08-03T10:05:57.461Z,45.52
2022-08-03T10:06:52.911Z,44.14
2022-08-03T10:07:52.886Z,42.93
2022-08-03T10:08:52.867Z,43.61
2022-08-03T10:09:52.860Z,44.19
2022-08-03T10:10:52.849Z,42.33
2022-08-03T10:11:52.838Z,42.79
2022-08-03T10:12:52.830Z,43.06
2022-08-03T10:13:59.330Z,41.05
2022-08-03T10:14:53.836Z,41.70
2022-08-03T10:16:24.145Z,42.09
2022-08-03T10:16:52.790Z,41.70
2022-08-03T10:17:52.779Z,42.85
2022-08-03T10:18:52.770Z,40.54
2022-08-03T10:19:52.762Z,41.02
2022-08-03T10:20:52.750Z,41.80
2022-08-03T10:21:52.744Z,41.63
2022-08-03T10:22:52.731Z,42.69
2022-08-03T10:23:52.721Z,42.85
2022-08-03T10:24:52.713Z,43.82
2022-08-03T10:25:52.698Z,43.15
2022-08-03T10:26:52.695Z,42.68
2022-08-03T10:27:52.724Z,43.87
2022-08-03T10:28:52.696Z,43.48
2022-08-03T10:29:52.722Z,44.14
2022-08-03T10:30:52.667Z,43.26
2022-08-03T10:31:55.901Z,43.63
2022-08-03T10:32:52.631Z,42.64
2022-08-03T10:33:53.448Z,43.10
2022-08-03T10:35:00.218Z,42.02
2022-08-03T10:35:53.631Z,42.40
2022-08-03T10:36:52.594Z,41.53
2022-08-03T10:37:57.321Z,41.67
2022-08-03T10:38:52.827Z,42.54
2022-08-03T10:39:52.560Z,42.33
2022-08-03T10:40:57.129Z,41.57
2022-08-03T10:41:53.633Z,40.97
2022-08-03T10:42:52.531Z,42.15
2022-08-03T10:43:52.527Z,43.68
2022-08-03T10:44:52.518Z,42.61
2022-08-03T10:45:52.502Z,41.89
2022-08-03T10:46:52.495Z,41.39
2022-08-03T10:47:52.483Z,41.30
2022-08-03T10:48:52.661Z,40.64
2022-08-03T10:49:52.510Z,40.13
2022-08-03T10:50:52.488Z,40.64
2022-08-03T10:51:54.407Z,40.42
2022-08-03T10:52:52.489Z,40.05
2022-08-03T10:53:54.724Z,41.80
2022-08-03T10:54:52.421Z,40.91
2022-08-03T10:55:52.413Z,40.31
2022-08-03T10:56:52.404Z,40.83
2022-08-03T10:57:56.133Z,40.21
2022-08-03T10:58:57.573Z,40.31
2022-08-03T10:59:52.375Z,39.49
2022-08-03T11:00:52.428Z,38.89
2022-08-03T11:02:00.835Z,38.68
2022-08-03T11:02:52.349Z,39.16
2022-08-03T11:03:52.338Z,38.56
2022-08-03T11:04:52.330Z,37.19
2022-08-03T11:05:52.321Z,37.70
2022-08-03T11:06:52.313Z,37.50
2022-08-03T11:07:54.711Z,37.12
2022-08-03T11:08:52.295Z,37.88
2022-08-03T11:09:52.289Z,36.90
2022-08-03T11:10:52.275Z,36.80
2022-08-03T11:11:52.269Z,36.01
2022-08-03T11:12:52.311Z,36.30
2022-08-03T11:13:52.310Z,36.92
2022-08-03T11:14:52.257Z,37.62
2022-08-03T11:15:52.230Z,37.30
2022-08-03T11:16:52.222Z,36.68
2022-08-03T11:17:56.225Z,37.48
2022-08-03T11:18:52.208Z,37.67
2022-08-03T11:19:56.914Z,37.36
2022-08-03T11:20:52.186Z,37.36
2022-08-03T11:21:52.177Z,38.50
2022-08-03T11:22:52.165Z,37.52
2022-08-03T11:24:05.253Z,37.21
2022-08-03T11:24:52.149Z,36.40
2022-08-03T11:25:54.808Z,35.94
2022-08-03T11:26:52.132Z,37.32
2022-08-03T11:27:52.117Z,37.21
2022-08-03T11:28:52.110Z,36.26
2022-08-03T11:29:52.104Z,36.57
2022-08-03T11:30:52.099Z,36.78
2022-08-03T11:31:52.176Z,36.16
2022-08-03T11:32:52.074Z,37.30
2022-08-03T11:33:52.067Z,36.24
2022-08-03T11:34:52.058Z,36.72
2022-08-03T11:35:52.070Z,35.47
2022-08-03T11:36:52.082Z,36.05
2022-08-03T11:38:01.944Z,36.63
2022-08-03T11:38:52.036Z,36.69
2022-08-03T11:39:52.008Z,36.48
2022-08-03T11:40:52.002Z,34.92
2022-08-03T11:41:51.998Z,36.30
2022-08-03T11:42:51.985Z,36.03
2022-08-03T11:43:51.972Z,37.10
2022-08-03T11:44:51.964Z,36.59
2022-08-03T11:45:51.956Z,35.03
2022-08-03T11:46:51.946Z,35.03
2022-08-03T11:47:51.936Z,36.79
2022-08-03T11:48:51.930Z,36.69
2022-08-03T11:49:51.920Z,35.90
2022-08-03T11:50:51.912Z,36.07
2022-08-03T11:51:51.904Z,35.50
2022-08-03T11:52:51.896Z,34.72
2022-08-03T11:53:51.986Z,35.77
2022-08-03T11:54:56.877Z,34.98
2022-08-03T11:55:51.866Z,33.81
2022-08-03T11:56:51.861Z,34.77
2022-08-03T11:59:01.263Z,34.30
2022-08-03T11:59:10.748Z,35.16
2022-08-03T11:59:52.861Z,33.42
2022-08-03T12:00:51.863Z,33.21
2022-08-03T12:01:51.886Z,33.02
2022-08-03T12:02:51.837Z,33.40
2022-08-03T12:03:51.800Z,33.36
2022-08-03T12:04:51.787Z,34.26
2022-08-03T12:05:52.685Z,34.63
2022-08-03T12:06:51.768Z,34.21
2022-08-03T12:08:03.377Z,33.91
2022-08-03T12:08:52.776Z,33.12
2022-08-03T12:09:51.740Z,33.12
2022-08-03T12:10:51.733Z,33.23
2022-08-03T12:12:00.200Z,33.02
2022-08-03T12:12:52.785Z,32.84
2022-08-03T12:14:35.760Z,32.95
2022-08-03T12:14:52.798Z,32.95
2022-08-03T12:15:51.685Z,33.94
2022-08-03T12:16:51.679Z,34.21
2022-08-03T12:17:57.402Z,34.03
2022-08-03T12:18:51.663Z,35.00
2022-08-03T12:19:51.649Z,34.69
2022-08-03T12:20:51.643Z,34.42
2022-08-03T12:21:56.635Z,33.92
2022-08-03T12:22:51.696Z,35.48
2022-08-03T12:23:51.663Z,34.82
2022-08-03T12:24:51.688Z,34.94
2022-08-03T12:25:51.622Z,33.94
2022-08-03T12:26:58.289Z,34.21
2022-08-03T12:27:52.608Z,34.19
2022-08-03T12:28:51.572Z,33.33
2022-08-03T12:29:58.177Z,35.64
2022-08-03T12:30:51.556Z,33.94
2022-08-03T12:31:51.545Z,34.42
2022-08-03T12:32:51.540Z,34.42
2022-08-03T12:33:51.541Z,33.86
2022-08-03T12:34:51.525Z,34.01
2022-08-03T12:35:52.363Z,32.94
2022-08-03T12:36:51.511Z,33.97
2022-08-03T12:37:51.494Z,32.43
2022-08-03T12:38:51.486Z,32.23
2022-08-03T12:40:02.195Z,32.21
2022-08-03T12:40:52.496Z,33.58
2022-08-03T12:41:51.461Z,32.90
2022-08-03T12:42:51.457Z,33.02
2022-08-03T12:43:51.444Z,33.50
2022-08-03T12:44:51.456Z,34.17
2022-08-03T12:45:51.582Z,34.54
2022-08-03T12:46:51.682Z,34.43
2022-08-03T12:47:51.695Z,31.92
2022-08-03T12:48:51.704Z,31.98
2022-08-03T12:49:51.422Z,31.79
2022-08-03T12:50:53.596Z,31.77
2022-08-03T12:51:51.372Z,31.29
2022-08-03T12:52:51.366Z,32.09